createdAt,value
2024-01-12T00:00:48.454Z,27.52
2024-01-12T00:03:16.391Z,28.63
2024-01-12T00:05:46.423Z,25.65
2024-01-12T00:08:14.510Z,30.65
2024-01-12T00:10:42.438Z,26.27
2024-01-12T00:13:11.871Z,33.03
2024-01-12T00:15:39.822Z,28.08
2024-01-12T00:18:07.756Z,23.50
2024-01-12T00:20:37.669Z,29.20
2024-01-12T00:23:05.848Z,24.13
2024-01-12T00:25:33.930Z,26.67
2024-01-12T00:28:01.748Z,34.20
2024-01-12T00:30:31.011Z,32.53
2024-01-12T00:32:58.984Z,26.10
2024-01-12T00:35:26.976Z,30.25
2024-01-12T00:37:54.962Z,30.27
2024-01-12T00:40:22.821Z,32.00
2024-01-12T00:42:51.444Z,28.48
2024-01-12T00:45:19.468Z,29.10
2024-01-12T00:47:48.979Z,32.80
2024-01-12T00:50:17.080Z,35.83
2024-01-12T00:52:45.040Z,33.22
2024-01-12T00:55:14.298Z,31.42
2024-01-12T00:57:42.187Z,26.63
2024-01-12T01:00:10.898Z,28.00
2024-01-12T01:02:38.851Z,32.83
2024-01-12T01:05:09.268Z,29.88
2024-01-12T01:07:37.136Z,28.23
2024-01-12T01:10:05.424Z,29.00
2024-01-12T01:12:33.361Z,26.65
2024-01-12T01:15:01.404Z,26.52
2024-01-12T01:17:29.432Z,26.08
2024-01-12T01:19:57.477Z,29.70
2024-01-12T01:22:26.875Z,28.33
2024-01-12T01:24:54.731Z,34.78
2024-01-12T01:27:22.658Z,29.77
2024-01-12T01:29:50.595Z,26.73
2024-01-12T01:32:18.924Z,27.02
2024-01-12T01:34:47.535Z,29.25
2024-01-12T01:37:15.569Z,27.40
2024-01-12T01:39:44.829Z,25.35
2024-01-12T01:42:12.690Z,30.02
2024-01-12T01:44:40.574Z,32.30
2024-01-12T01:47:09.157Z,24.35
2024-01-12T01:49:37.394Z,26.40
2024-01-12T01:52:06.182Z,23.10
2024-01-12T01:54:35.159Z,23.92
2024-01-12T01:57:06.446Z,27.42
2024-01-12T01:59:36.467Z,27.65
2024-01-12T02:02:06.331Z,23.17
2024-01-12T02:04:34.302Z,25.65
2024-01-12T02:07:03.695Z,27.73
2024-01-12T02:09:32.837Z,22.73
2024-01-12T02:12:00.794Z,23.88
2024-01-12T02:14:30.094Z,35.20
2024-01-12T02:16:58.130Z,26.00
2024-01-12T02:19:26.001Z,29.23
2024-01-12T02:21:55.404Z,30.00
2024-01-12T02:24:23.287Z,28.63
2024-01-12T02:26:51.268Z,23.48
2024-01-12T02:29:20.094Z,32.13
2024-01-12T02:31:50.168Z,26.55
2024-01-12T02:34:18.497Z,25.48
2024-01-12T02:36:46.341Z,26.98
2024-01-12T02:39:16.093Z,25.80
2024-01-12T02:41:44.047Z,27.33
2024-01-12T02:44:11.952Z,23.38
2024-01-12T02:46:40.135Z,24.77
2024-01-12T02:49:09.365Z,25.42
2024-01-12T02:51:37.280Z,25.65
2024-01-12T02:54:05.691Z,24.40
2024-01-12T02:56:35.090Z,29.17
2024-01-12T02:59:03.020Z,29.90
2024-01-12T03:01:30.956Z,28.90
2024-01-12T03:03:58.884Z,26.30
2024-01-12T03:06:27.007Z,27.35
2024-01-12T03:08:55.046Z,31.27
2024-01-12T03:11:23.024Z,30.70
2024-01-12T03:13:52.460Z,25.35
2024-01-12T03:16:21.916Z,26.17
2024-01-12T03:18:51.108Z,26.83
2024-01-12T03:21:19.940Z,30.73
2024-01-12T03:23:49.226Z,27.73
2024-01-12T03:26:17.409Z,27.50
2024-01-12T03:28:45.367Z,24.15
2024-01-12T03:31:16.248Z,25.23
2024-01-12T03:33:45.813Z,26.97
2024-01-12T03:36:15.170Z,32.22
2024-01-12T03:38:43.089Z,27.17
2024-01-12T03:41:11.652Z,32.65
2024-01-12T03:43:39.589Z,31.08
2024-01-12T03:46:07.497Z,29.80
2024-01-12T03:48:37.250Z,31.98
2024-01-12T03:51:06.981Z,28.23
2024-01-12T03:53:34.978Z,26.73
2024-01-12T03:56:02.880Z,24.38
2024-01-12T03:58:31.618Z,28.63
2024-01-12T04:00:59.536Z,25.05
2024-01-12T04:03:27.594Z,26.90
2024-01-12T04:05:56.917Z,23.55
2024-01-12T04:08:24.911Z,24.98
2024-01-12T04:10:52.961Z,24.25
2024-01-12T04:13:20.823Z,25.55
2024-01-12T04:15:48.922Z,23.80
2024-01-12T04:18:16.952Z,29.50
2024-01-12T04:20:45.010Z,30.08
2024-01-12T04:23:14.549Z,30.98
2024-01-12T04:25:42.438Z,29.10
2024-01-12T04:28:10.336Z,24.40
2024-01-12T04:30:38.243Z,23.35
2024-01-12T04:33:06.583Z,17.67
2024-01-12T04:35:34.560Z,26.73
2024-01-12T04:38:02.509Z,22.65
2024-01-12T04:40:31.779Z,27.90
2024-01-12T04:42:59.694Z,22.67
2024-01-12T04:45:27.578Z,24.80
2024-01-12T04:47:55.513Z,24.75
2024-01-12T04:50:23.657Z,27.15
2024-01-12T04:52:53.242Z,18.05
2024-01-12T04:55:21.133Z,18.98
2024-01-12T04:57:50.659Z,20.58
2024-01-12T05:00:20.057Z,22.50
2024-01-12T05:02:48.279Z,19.65
2024-01-12T05:05:16.445Z,24.50
2024-01-12T05:07:44.431Z,19.38
2024-01-12T05:10:12.369Z,27.98
2024-01-12T05:12:40.304Z,28.38
2024-01-12T05:15:10.590Z,21.38
2024-01-12T05:17:39.031Z,27.63
2024-01-12T05:20:08.884Z,30.20
2024-01-12T05:22:37.535Z,23.45
2024-01-12T05:25:05.985Z,24.92
2024-01-12T05:27:33.986Z,34.13
2024-01-12T05:30:04.057Z,22.48
2024-01-12T05:32:34.390Z,24.00
2024-01-12T05:35:02.671Z,29.58
2024-01-12T05:37:30.594Z,22.58
2024-01-12T05:39:58.547Z,24.63
2024-01-12T05:42:26.529Z,22.98
2024-01-12T05:44:54.488Z,20.38
2024-01-12T05:47:22.435Z,20.67
2024-01-12T05:49:51.935Z,19.85
2024-01-12T05:52:19.970Z,26.73
2024-01-12T05:54:47.869Z,27.77
2024-01-12T05:57:14.787Z,28.27
2024-01-12T05:59:43.603Z,23.85
2024-01-12T06:02:14.843Z,23.63
2024-01-12T06:04:43.142Z,27.83
2024-01-12T06:07:12.438Z,33.38
2024-01-12T06:09:40.404Z,26.38
2024-01-12T06:12:10.911Z,27.88
2024-01-12T06:14:38.884Z,27.30
2024-01-12T06:17:06.966Z,32.00
2024-01-12T06:19:35.004Z,29.70
2024-01-12T06:22:02.971Z,32.15
2024-01-12T06:24:32.259Z,30.15
2024-01-12T06:27:02.916Z,26.00
2024-01-12T06:29:32.823Z,28.65
2024-01-12T06:32:00.799Z,35.55
2024-01-12T06:34:28.705Z,25.85
2024-01-12T06:36:57.818Z,23.55
2024-01-12T06:39:25.867Z,28.50
2024-01-12T06:41:55.228Z,23.63
2024-01-12T06:44:23.248Z,27.83
2024-01-12T06:46:51.284Z,25.85
2024-01-12T06:49:19.245Z,19.60
2024-01-12T06:51:47.837Z,25.92
2024-01-12T06:54:17.501Z,22.88
2024-01-12T06:56:46.670Z,21.90
2024-01-12T06:59:16.007Z,24.85
2024-01-12T07:01:43.903Z,24.25
2024-01-12T07:04:11.948Z,21.40
2024-01-12T07:06:40.344Z,19.60
2024-01-12T07:09:13.023Z,19.05
2024-01-12T07:11:43.470Z,17.77
2024-01-12T07:14:11.760Z,23.15
2024-01-12T07:16:41.035Z,17.58
2024-01-12T07:19:09.541Z,22.35
2024-01-12T07:21:37.752Z,20.48
2024-01-12T07:24:06.227Z,20.85
2024-01-12T07:26:34.337Z,14.75
2024-01-12T07:29:02.398Z,21.10
2024-01-12T07:31:31.282Z,17.98
2024-01-12T07:34:00.696Z,18.02
2024-01-12T07:36:28.856Z,19.98
2024-01-12T07:38:58.199Z,21.65
2024-01-12T07:41:28.011Z,24.08
2024-01-12T07:43:56.215Z,21.65
2024-01-12T07:46:24.582Z,21.25
2024-01-12T07:48:53.466Z,18.67
2024-01-12T07:51:22.885Z,21.35
2024-01-12T07:53:50.933Z,17.35
2024-01-12T07:56:18.931Z,16.98
2024-01-12T07:58:47.168Z,16.30
2024-01-12T08:01:15.361Z,19.08
2024-01-12T08:03:43.531Z,20.85
2024-01-12T08:06:11.930Z,17.42
2024-01-12T08:08:41.309Z,17.75
2024-01-12T08:11:23.121Z,16.60
2024-01-12T08:13:55.994Z,20.48
2024-01-12T08:16:23.858Z,19.13
2024-01-12T08:18:51.752Z,17.45
2024-01-12T08:21:19.679Z,18.58
2024-01-12T08:23:49.027Z,19.88
2024-01-12T08:26:17.051Z,16.25
2024-01-12T08:28:44.986Z,16.27
2024-01-12T08:31:13.490Z,17.45
2024-01-12T08:33:43.469Z,17.90
2024-01-12T08:36:11.497Z,20.27
2024-01-12T08:38:39.587Z,17.20
2024-01-12T08:41:08.866Z,16.52
2024-01-12T08:43:38.082Z,14.32
2024-01-12T08:46:09.741Z,15.40
2024-01-12T08:48:38.100Z,19.67
2024-01-12T08:51:08.609Z,13.50
2024-01-12T08:53:38.405Z,11.67
2024-01-12T08:56:08.975Z,17.88
2024-01-12T08:58:39.199Z,15.50
2024-01-12T09:01:08.430Z,16.42
2024-01-12T09:03:36.452Z,16.67
2024-01-12T09:06:04.777Z,15.30
2024-01-12T09:08:32.774Z,18.70
2024-01-12T09:11:02.106Z,19.00
2024-01-12T09:13:29.975Z,14.13
2024-01-12T09:15:59.287Z,11.05
2024-01-12T09:18:27.410Z,10.77
2024-01-12T09:20:55.482Z,9.73
2024-01-12T09:23:23.480Z,11.73
2024-01-12T09:25:55.336Z,8.80
2024-01-12T09:28:23.529Z,9.00
2024-01-12T09:30:51.670Z,12.80
2024-01-12T09:33:21.237Z,10.68
2024-01-12T09:35:49.349Z,9.50
2024-01-12T09:38:17.353Z,10.07
2024-01-12T09:40:46.568Z,9.48
2024-01-12T09:43:15.942Z,12.55
2024-01-12T09:45:46.360Z,12.80
2024-01-12T09:48:15.037Z,13.93
2024-01-12T09:50:45.874Z,11.05
2024-01-12T09:53:13.851Z,17.08
2024-01-12T09:55:41.819Z,8.43
2024-01-12T09:58:12.181Z,9.02
2024-01-12T10:00:42.624Z,11.35
2024-01-12T10:03:12.589Z,7.15
2024-01-12T10:05:42.608Z,13.85
2024-01-12T10:08:12.325Z,9.00
2024-01-12T10:10:41.376Z,7.95
2024-01-12T10:13:09.306Z,10.18
2024-01-12T10:15:42.047Z,12.60
2024-01-12T10:18:10.024Z,9.13
2024-01-12T10:20:38.774Z,11.60
2024-01-12T10:23:06.935Z,12.20
2024-01-12T10:25:37.186Z,11.68
2024-01-12T10:28:05.395Z,12.23
2024-01-12T10:30:33.075Z,10.05
2024-01-12T10:33:02.309Z,11.80
2024-01-12T10:35:30.288Z,10.45
2024-01-12T10:38:00.630Z,11.18
2024-01-12T10:40:28.571Z,14.10
2024-01-12T10:42:58.986Z,17.00
2024-01-12T10:45:27.922Z,13.65
2024-01-12T10:48:02.837Z,12.98
2024-01-12T10:50:35.126Z,13.88
2024-01-12T10:53:16.555Z,15.38
2024-01-12T10:55:55.140Z,16.23
2024-01-12T10:58:25.439Z,15.43
2024-01-12T11:00:54.457Z,16.83
2024-01-12T11:03:23.453Z,21.92
2024-01-12T11:05:52.834Z,18.55
2024-01-12T11:08:22.871Z,14.45
2024-01-12T11:10:53.894Z,20.35
2024-01-12T11:13:22.893Z,15.65
2024-01-12T11:15:53.880Z,20.27
2024-01-12T11:18:21.984Z,12.93
2024-01-12T11:20:50.090Z,17.58
2024-01-12T11:23:18.984Z,17.30
2024-01-12T11:25:46.970Z,18.67
2024-01-12T11:28:16.645Z,14.98
2024-01-12T11:30:44.630Z,12.80
2024-01-12T11:33:18.990Z,14.70
2024-01-12T11:35:52.614Z,17.50
2024-01-12T11:38:20.924Z,16.10
2024-01-12T11:40:50.729Z,13.48
2024-01-12T11:43:18.923Z,15.93
2024-01-12T11:45:47.421Z,12.02
2024-01-12T11:48:17.260Z,15.10
2024-01-12T11:50:45.469Z,14.23
2024-01-12T11:53:14.568Z,17.77
2024-01-12T11:55:42.730Z,17.77
2024-01-12T11:58:10.659Z,14.38
2024-01-12T12:00:37.573Z,16.52
2024-01-12T12:03:05.945Z,17.92
2024-01-12T12:05:35.705Z,13.20
2024-01-12T12:08:05.155Z,18.42
2024-01-12T12:10:40.957Z,17.20
2024-01-12T12:13:13.850Z,20.13
2024-01-12T12:15:41.727Z,19.95
2024-01-12T12:18:09.928Z,20.70
2024-01-12T12:20:39.451Z,21.83
2024-01-12T12:23:08.595Z,17.85
2024-01-12T12:25:36.722Z,20.17
2024-01-12T12:28:04.989Z,19.00
2024-01-12T12:30:33.120Z,18.48
2024-01-12T12:33:01.832Z,19.33
2024-01-12T12:35:30.012Z,17.40
2024-01-12T12:38:02.989Z,21.98
2024-01-12T12:40:31.440Z,21.45
2024-01-12T12:43:00.101Z,23.70
2024-01-12T12:45:28.647Z,20.52
2024-01-12T12:47:56.855Z,18.50
2024-01-12T12:50:25.625Z,19.25
2024-01-12T12:52:53.780Z,25.67
2024-01-12T12:55:23.278Z,19.00
2024-01-12T12:57:52.195Z,22.38
2024-01-12T13:00:20.457Z,19.23
2024-01-12T13:02:49.124Z,19.80
2024-01-12T13:05:19.031Z,17.17
2024-01-12T13:07:47.067Z,19.65
2024-01-12T13:10:15.196Z,19.25
2024-01-12T13:12:44.532Z,15.15
2024-01-12T13:15:13.106Z,17.25
2024-01-12T13:17:42.010Z,16.73
2024-01-12T13:20:10.984Z,18.73
2024-01-12T13:22:38.948Z,21.42
2024-01-12T13:25:07.917Z,14.95
2024-01-12T13:27:38.247Z,20.20
2024-01-12T13:30:10.727Z,18.13
2024-01-12T13:32:39.188Z,21.45
2024-01-12T13:35:08.745Z,21.27
2024-01-12T13:37:36.728Z,19.35
2024-01-12T13:40:05.241Z,17.75
2024-01-12T13:42:33.162Z,19.17
2024-01-12T13:45:02.227Z,21.33
2024-01-12T13:47:32.576Z,19.02
2024-01-12T13:50:00.718Z,13.43
2024-01-12T13:52:28.711Z,24.67
2024-01-12T13:54:56.590Z,13.77
2024-01-12T13:57:24.490Z,16.55
2024-01-12T13:59:52.415Z,17.90
2024-01-12T14:02:20.609Z,22.48
2024-01-12T14:05:00.843Z,21.40
2024-01-12T14:07:38.552Z,22.80
2024-01-12T14:10:07.417Z,26.40
2024-01-12T14:12:36.075Z,23.10
2024-01-12T14:15:04.331Z,23.67
2024-01-12T14:17:32.476Z,26.88
2024-01-12T14:20:02.326Z,23.77
2024-01-12T14:22:30.389Z,27.80
2024-01-12T14:24:58.307Z,32.65
2024-01-12T14:27:26.436Z,27.27
2024-01-12T14:29:56.005Z,23.83
2024-01-12T14:32:24.488Z,23.73
2024-01-12T14:34:52.688Z,24.15
2024-01-12T14:37:23.558Z,25.67
2024-01-12T14:39:52.044Z,23.77
2024-01-12T14:42:19.969Z,26.42
2024-01-12T14:44:48.468Z,25.60
2024-01-12T14:47:16.376Z,24.10
2024-01-12T14:49:44.340Z,29.35
2024-01-12T14:52:13.190Z,36.97
2024-01-12T14:54:45.471Z,27.83
2024-01-12T14:57:13.388Z,28.70
2024-01-12T14:59:41.852Z,30.73
2024-01-12T15:02:10.192Z,25.83
2024-01-12T15:04:38.264Z,32.90
2024-01-12T15:07:08.819Z,33.88
2024-01-12T15:09:36.947Z,34.60
2024-01-12T15:12:07.704Z,30.63
2024-01-12T15:14:36.456Z,33.47
2024-01-12T15:17:04.714Z,34.78
2024-01-12T15:19:32.706Z,32.10
2024-01-12T15:22:00.860Z,32.70
2024-01-12T15:24:28.784Z,33.10
2024-01-12T15:26:56.914Z,32.78
2024-01-12T15:29:26.226Z,33.38
2024-01-12T15:31:54.129Z,34.03
2024-01-12T15:34:22.223Z,36.90
2024-01-12T15:36:50.241Z,43.67
2024-01-12T15:39:18.112Z,38.60
2024-01-12T15:41:46.102Z,41.65
2024-01-12T15:44:14.165Z,38.35
2024-01-12T15:46:43.385Z,36.00
2024-01-12T15:49:12.735Z,35.67
2024-01-12T15:51:42.028Z,40.08
2024-01-12T15:54:10.038Z,42.55
2024-01-12T15:56:38.339Z,42.05
2024-01-12T15:59:06.665Z,37.47
2024-01-12T16:01:34.520Z,39.40
2024-01-12T16:04:03.854Z,31.77
2024-01-12T16:06:32.370Z,38.65
2024-01-12T16:09:00.414Z,37.42
2024-01-12T16:11:28.887Z,41.85
2024-01-12T16:13:56.865Z,30.73
2024-01-12T16:16:24.769Z,36.83
2024-01-12T16:19:00.166Z,34.33
2024-01-12T16:21:37.481Z,39.85
2024-01-12T16:24:05.758Z,30.52
2024-01-12T16:26:38.621Z,47.13
2024-01-12T16:29:06.704Z,44.03
2024-01-12T16:31:34.573Z,42.55
2024-01-12T16:34:02.677Z,40.40
2024-01-12T16:36:30.712Z,38.72
2024-01-12T16:39:00.039Z,31.73
2024-01-12T16:41:27.958Z,50.65
2024-01-12T16:43:55.858Z,44.75
2024-01-12T16:46:23.770Z,44.95
2024-01-12T16:48:51.904Z,38.20
2024-01-12T16:51:19.976Z,47.03
2024-01-12T16:53:47.914Z,44.97
2024-01-12T16:56:17.226Z,44.03
2024-01-12T16:58:45.118Z,45.22
2024-01-12T17:01:13.050Z,45.35
2024-01-12T17:03:41.025Z,43.28
2024-01-12T17:06:09.283Z,41.60
2024-01-12T17:08:37.324Z,40.65
2024-01-12T17:11:07.991Z,45.97
2024-01-12T17:13:37.282Z,48.28
2024-01-12T17:16:05.766Z,55.15
2024-01-12T17:18:33.860Z,53.65
2024-01-12T17:21:02.077Z,46.08
2024-01-12T17:23:30.243Z,48.70
2024-01-12T17:25:58.258Z,52.00
2024-01-12T17:28:26.395Z,52.00
2024-01-12T17:30:55.829Z,49.72
2024-01-12T17:33:23.967Z,55.13
2024-01-12T17:35:52.102Z,44.65
2024-01-12T17:38:20.126Z,43.80
2024-01-12T17:40:47.994Z,48.00
2024-01-12T17:43:15.871Z,49.97
2024-01-12T17:45:43.774Z,49.50
2024-01-12T17:48:13.193Z,51.83
2024-01-12T17:50:41.639Z,54.65
2024-01-12T17:53:09.545Z,52.83
2024-01-12T17:55:37.436Z,55.10
2024-01-12T17:58:05.594Z,52.28
2024-01-12T18:00:33.455Z,55.35
2024-01-12T18:03:01.412Z,49.88
2024-01-12T18:05:32.701Z,57.83
2024-01-12T18:08:00.698Z,56.72
2024-01-12T18:10:28.797Z,51.78
2024-01-12T18:12:56.663Z,54.83
2024-01-12T18:15:24.539Z,56.22
2024-01-12T18:17:52.492Z,50.45
2024-01-12T18:20:21.723Z,52.20
2024-01-12T18:22:50.978Z,56.53
2024-01-12T18:25:18.913Z,56.60
2024-01-12T18:27:46.797Z,63.22
2024-01-12T18:30:15.176Z,53.58
2024-01-12T18:32:43.323Z,60.28
2024-01-12T18:35:11.360Z,51.03
2024-01-12T18:37:40.742Z,61.20
2024-01-12T18:40:10.991Z,58.42
2024-01-12T18:42:38.844Z,54.97
2024-01-12T18:45:07.927Z,53.28
2024-01-12T18:47:36.003Z,52.22
2024-01-12T18:50:04.184Z,54.05
2024-01-12T18:52:32.055Z,56.03
2024-01-12T18:54:59.950Z,61.33
2024-01-12T18:57:29.384Z,64.30
2024-01-12T18:59:57.338Z,58.42
2024-01-12T19:02:25.328Z,57.70
2024-01-12T19:04:53.245Z,48.55
2024-01-12T19:07:21.072Z,56.92
2024-01-12T19:09:49.092Z,49.05
2024-01-12T19:12:17.040Z,66.45
2024-01-12T19:14:46.571Z,48.95
2024-01-12T19:17:14.639Z,55.80
2024-01-12T19:19:42.678Z,47.15
2024-01-12T19:22:10.611Z,50.17
2024-01-12T19:24:42.633Z,47.30
2024-01-12T19:27:10.601Z,50.78
2024-01-12T19:32:11.589Z,60.65
2024-01-12T19:34:41.577Z,45.10
2024-01-12T19:37:09.956Z,48.30
2024-01-12T19:39:37.888Z,49.45
2024-01-12T19:42:06.364Z,44.83
2024-01-12T19:44:34.734Z,48.88
2024-01-12T19:47:02.630Z,42.63
2024-01-12T19:49:31.977Z,41.53
2024-01-12T19:51:59.958Z,40.50
2024-01-12T19:54:27.839Z,50.92
2024-01-12T19:56:55.768Z,51.38
2024-01-12T19:59:23.684Z,45.90
2024-01-12T20:01:51.871Z,44.55
2024-01-12T20:04:26.464Z,41.38
2024-01-12T20:07:02.662Z,35.53
2024-01-12T20:09:30.842Z,40.85
2024-01-12T20:11:58.747Z,44.17
2024-01-12T20:14:26.731Z,49.83
2024-01-12T20:16:54.909Z,34.40
2024-01-12T20:19:23.061Z,38.47
2024-01-12T20:21:51.260Z,41.90
2024-01-12T20:24:20.879Z,39.72
2024-01-12T20:26:49.158Z,36.70
2024-01-12T20:29:17.058Z,36.78
2024-01-12T20:31:45.876Z,38.08
2024-01-12T20:34:14.002Z,36.95
2024-01-12T20:36:41.968Z,35.53
2024-01-12T20:39:10.198Z,45.60
2024-01-12T20:41:39.548Z,33.40
2024-01-12T20:44:07.596Z,30.42
2024-01-12T20:46:35.668Z,30.98
2024-01-12T20:49:03.678Z,31.08
2024-01-12T20:51:31.806Z,37.95
2024-01-12T20:53:59.770Z,41.47
2024-01-12T20:56:27.690Z,30.13
2024-01-12T20:58:56.939Z,37.30
2024-01-12T21:01:25.121Z,35.42
2024-01-12T21:03:53.243Z,31.65
2024-01-12T21:06:21.418Z,33.05
2024-01-12T21:08:49.445Z,38.10
2024-01-12T21:11:17.354Z,33.17
2024-01-12T21:13:45.217Z,28.55
2024-01-12T21:16:15.132Z,28.77
2024-01-12T21:18:43.203Z,26.08
2024-01-12T21:21:12.752Z,32.67
2024-01-12T21:23:40.779Z,31.40
2024-01-12T21:26:08.732Z,32.97
2024-01-12T21:28:36.616Z,28.85
2024-01-12T21:31:04.873Z,34.13
2024-01-12T21:33:34.338Z,27.98
2024-01-12T21:36:02.460Z,34.13
2024-01-12T21:38:30.375Z,31.48
2024-01-12T21:40:58.383Z,25.05
2024-01-12T21:43:26.313Z,32.85
2024-01-12T21:45:54.367Z,29.90
2024-01-12T21:48:22.345Z,32.03
2024-01-12T21:50:51.707Z,31.92
2024-01-12T21:53:19.617Z,35.30
2024-01-12T21:55:47.510Z,29.70
2024-01-12T21:58:15.408Z,30.95
2024-01-12T22:00:43.293Z,34.17
2024-01-12T22:03:11.411Z,24.20
2024-01-12T22:05:39.414Z,28.35
2024-01-12T22:08:08.791Z,28.58
2024-01-12T22:10:36.698Z,29.35
2024-01-12T22:13:04.713Z,33.10
2024-01-12T22:15:32.576Z,30.92
2024-01-12T22:18:00.686Z,30.10
2024-01-12T22:20:28.728Z,26.35
2024-01-12T22:22:56.623Z,26.50
2024-01-12T22:25:25.865Z,27.95
2024-01-12T22:27:53.792Z,26.10
2024-01-12T22:30:21.983Z,31.48
2024-01-12T22:32:50.050Z,26.63
2024-01-12T22:35:18.063Z,25.73
2024-01-12T22:37:46.373Z,27.85
2024-01-12T22:40:14.369Z,27.98
2024-01-12T22:42:43.650Z,30.48
2024-01-12T22:45:12.101Z,19.75
2024-01-12T22:47:41.423Z,26.67
2024-01-12T22:50:10.054Z,25.60
2024-01-12T22:52:38.941Z,23.00
2024-01-12T22:55:08.044Z,25.48
2024-01-12T22:57:35.936Z,25.52
2024-01-12T23:00:25.262Z,29.25
2024-01-12T23:02:53.864Z,24.10
2024-01-12T23:05:22.357Z,26.15
2024-01-12T23:07:50.261Z,20.67
2024-01-12T23:10:18.517Z,27.98
2024-01-12T23:12:46.484Z,25.50
2024-01-12T23:15:15.803Z,27.77
2024-01-12T23:17:44.562Z,25.05
2024-01-12T23:20:15.472Z,24.08
2024-01-12T23:22:45.438Z,30.00
2024-01-12T23:25:12.687Z,26.02
2024-01-12T23:27:41.718Z,22.27
2024-01-12T23:30:10.315Z,21.00
2024-01-12T23:32:39.996Z,22.60
2024-01-12T23:35:09.383Z,21.35
2024-01-12T23:37:37.369Z,25.98
2024-01-12T23:40:05.776Z,21.35
2024-01-12T23:42:33.673Z,34.70
2024-01-12T23:45:01.625Z,20.88
2024-01-12T23:47:29.704Z,23.08
2024-01-12T23:49:59.071Z,17.17
2024-01-12T23:52:27.084Z,24.27
2024-01-12T23:54:54.960Z,19.23
2024-01-12T23:57:22.920Z,19.70
2024-01-12T23:59:50.852Z,24.90
